You must use a browser capable of displaying tables to view this page.

The table shows the data used to make the storm track maps. Click on the storm name in the first row to get a close up view of the storm track.

Name Date Time (UT) Lat (degrees) Lon (degrees) Course (true) Speed (knots) Pressure (mb) Wind (knots) Gusts (knots) Type Actual / Forecast WMO
TALAS 2011-08-25 06:00 19.2N 140.7E 350 09 ??? 035 045 STO ACT WTPN32
TALAS 2011-08-25 12:00 20.2N 140.6E 355 10 ??? 040 050 STO ACT WTPN32
TALAS 2011-08-25 18:00 20.5N 139.8E 340 08 ??? 040 050 STO ACT WTPN32
TALAS 2011-08-26 00:00 20.8N 139.4E 330 06 ??? 045 055 STO ACT WTPN32
TALAS 2011-08-26 06:00 21.4N 139.4E 360 06 ??? 040 050 STO ACT WTPN32
TALAS 2011-08-26 12:00 22.1N 139.7E 020 08 ??? 045 055 STO ACT WTPN32
TALAS 2011-08-26 18:00 22.6N 139.4E 360 05 ??? 045 055 STO ACT WTPN32
TALAS 2011-08-30 00:00 25.3N 139.8E 340 05 ??? 055 070 STO ACT WTPN32
TALAS 2011-08-30 06:00 25.8N 139.6E 340 05 ??? 055 070 STO ACT WTPN32
TALAS 2011-08-30 12:00 26.4N 139.2E 335 07 ??? 055 070 STO ACT WTPN32
TALAS 2011-08-30 18:00 26.5N 138.6E 295 05 ??? 055 070 STO ACT WTPN32
TALAS 2011-08-31 00:00 26.6N 137.9E 295 07 ??? 055 070 STO ACT WTPN32
TALAS 2011-08-31 06:00 27.0N 137.1E 300 08 ??? 055 070 STO ACT WTPN32
TALAS 2011-08-31 12:00 27.3N 136.8E 320 05 ??? 055 070 STO ACT WTPN32
TALAS 2011-08-31 18:00 27.5N 136.4E 300 04 ??? 055 070 STO ACT WTPN32
TALAS 2011-09-01 00:00 27.9N 136.4E 345 03 ??? 055 070 STO ACT WTPN32
TALAS 2011-09-01 06:00 28.3N 135.8E 320 05 ??? 055 070 STO ACT WTPN32
TALAS 2011-09-01 12:00 28.8N 135.4E 325 06 ??? 055 070 STO ACT WTPN32
TALAS 2011-09-01 18:00 29.5N 135.5E 355 07 ??? 055 070 STO ACT WTPN32
TALAS 2011-09-02 00:00 30.3N 135.2E 340 08 ??? 055 070 STO ACT WTPN32
TALAS 2011-09-02 06:00 31.2N 134.5E 335 11 ??? 055 070 STO ACT WTPN32
TALAS 2011-09-02 12:00 32.2N 134.3E 345 10 ??? 050 065 STO ACT WTPN32
TALAS 2011-09-02 18:00 33.1N 134.0E 350 09 ??? 045 055 STO ACT WTPN32
TALAS 2011-09-03 00:00 33.6N 133.9E 350 05 ??? 045 055 STO ACT WTPN32
TALAS 2011-09-03 06:00 34.2N 133.8E 360 06 ??? 045 055 STO ACT WTPN32
TALAS 2011-09-03 12:00 35.0N 134.1E 015 08 ??? 040 050 STO ACT WTPN32
TALAS 2011-09-03 18:00 35.7N 134.3E 015 07 ??? 035 045 STO ACT WTPN32
TALAS 2011-09-04 00:00 37.0N 134.5E 005 13 ??? 025 035 DEP ACT WTPN32
TALAS 2011-09-04 12:00 41.1N 136.6E ??? ??? ??? 020 030 ??? FOR WTPN32
TALAS 2011-09-05 00:00 46.5N 140.4E ??? ??? ??? 020 030 ??? FOR WTPN32


Home Back

metcalf@akala.ifa.hawaii.edu